sim
Sign-in with your pilot id or email,
or register
Callsign
Passwort

Schedule Details

Flight Number: OEO6354
Departure: Munich Airport (EDDM) at 09:35
Arrival: Mumbai Chhatrapati Shivaji International Airport (VABB) at 17:35

Weather Information
Getting current METAR information for EDDM 191820Z 03004KT 340V060 CAVOK 20/17 Q1019 NOSIG
Getting current METAR information for VABB 191800Z 27007KT 3500 HZ SCT020 28/25 Q1010 NOSIG

Schedule Frequency

Route Map